Time;durP1;ratioP1;P1;durP2;ratioP2;P2;SDS_P1;SDS_P2;PMS_P1;PMS_P2;Temp;Humidity;BMP_temperature;BMP_pressure;BME280_temperature;BME280_humidity;BME280_pressure;Samples;Min_cycle;Max_cycle;Signal;HPM_P1;HPM_P2
2022/07/17 00:00:28;;;;;;;0.55;0.30;;;15.80;99.90;;;;;;4956187;29;20019;-71
2022/07/17 00:02:55;;;;;;;1.40;0.20;;;15.90;99.90;;;;;;4955906;29;20036;-71
2022/07/17 00:05:23;;;;;;;0.57;0.30;;;15.90;99.90;;;;;;4955616;29;20043;-70
2022/07/17 00:07:50;;;;;;;0.50;0.30;;;16.00;99.90;;;;;;4955928;29;20028;-70
2022/07/17 00:10:18;;;;;;;2.08;0.30;;;16.20;99.90;;;;;;4955917;29;20027;-70
2022/07/17 00:12:45;;;;;;;1.10;0.40;;;16.30;99.90;;;;;;4955842;29;20070;-69
2022/07/17 00:15:13;;;;;;;0.38;0.17;;;16.40;99.90;;;;;;4955633;29;20027;-71
2022/07/17 00:17:41;;;;;;;0.70;0.32;;;16.50;99.90;;;;;;4938275;29;20103;-72
2022/07/17 00:20:09;;;;;;;0.55;0.20;;;16.50;99.90;;;;;;4938362;29;20031;-72
2022/07/17 00:22:36;;;;;;;1.17;0.32;;;16.60;99.90;;;;;;4938330;29;20030;-71
2022/07/17 00:25:05;;;;;;;0.68;0.20;;;16.80;99.90;;;;;;4955565;29;20027;-72
2022/07/17 00:27:32;;;;;;;1.45;0.20;;;16.80;99.90;;;;;;4955547;29;20027;-72
2022/07/17 00:30:00;;;;;;;0.85;0.30;;;17.00;99.90;;;;;;4955497;29;20027;-72
2022/07/17 00:32:28;;;;;;;0.63;0.28;;;17.00;99.90;;;;;;4955853;29;20027;-71
2022/07/17 00:34:55;;;;;;;0.85;0.30;;;17.10;99.90;;;;;;4955317;29;20034;-71
2022/07/17 00:37:22;;;;;;;1.15;0.30;;;17.20;99.90;;;;;;4955404;29;20165;-71
2022/07/17 00:39:50;;;;;;;1.02;0.30;;;17.50;99.90;;;;;;4955296;29;20527;-71
2022/07/17 00:42:18;;;;;;;1.55;0.35;;;17.50;99.90;;;;;;4955307;29;20022;-71
2022/07/17 00:44:46;;;;;;;2.08;0.38;;;17.50;99.90;;;;;;4937845;29;20027;-72
2022/07/17 00:47:19;;;;;;;0.68;0.32;;;17.70;99.90;;;;;;4955204;29;20424;-72
2022/07/17 00:49:47;;;;;;;0.20;0.20;;;17.70;99.90;;;;;;4955199;29;20027;-72
2022/07/17 00:52:16;;;;;;;1.05;0.15;;;17.80;99.90;;;;;;4955273;29;20023;-72
2022/07/17 00:54:45;;;;;;;0.52;0.30;;;17.90;99.90;;;;;;4954963;29;20034;-73
2022/07/17 00:57:14;;;;;;;0.50;0.17;;;18.00;99.90;;;;;;4937769;29;20118;-72
2022/07/17 00:59:43;;;;;;;0.40;0.20;;;18.00;99.90;;;;;;4937762;29;20069;-73
2022/07/17 01:02:15;;;;;;;0.63;0.17;;;18.10;99.90;;;;;;4937839;29;20118;-72
2022/07/17 01:04:43;;;;;;;0.30;0.10;;;18.20;99.90;;;;;;4937708;29;20030;-72
2022/07/17 01:07:10;;;;;;;3.28;0.20;;;18.30;99.90;;;;;;4937623;29;20079;-72
2022/07/17 01:09:38;;;;;;;1.50;0.22;;;18.30;99.90;;;;;;4937061;29;20034;-72
2022/07/17 01:12:09;;;;;;;0.60;0.10;;;18.40;99.90;;;;;;4937674;29;20086;-73
2022/07/17 01:14:36;;;;;;;1.52;0.30;;;18.40;99.90;;;;;;4937566;29;20031;-72
2022/07/17 01:17:04;;;;;;;1.65;0.40;;;18.60;99.90;;;;;;4937579;29;20038;-71
2022/07/17 01:19:31;;;;;;;1.50;0.35;;;18.60;99.90;;;;;;4955373;29;20023;-71
2022/07/17 01:21:59;;;;;;;1.20;0.20;;;18.60;99.90;;;;;;4954977;29;20111;-72
2022/07/17 01:24:26;;;;;;;1.05;0.20;;;18.70;99.80;;;;;;4937405;29;20114;-71
2022/07/17 01:26:53;;;;;;;2.58;0.28;;;18.70;99.90;;;;;;4954831;29;20020;-71
2022/07/17 01:29:21;;;;;;;1.98;0.45;;;18.80;99.10;;;;;;4954781;29;20102;-69
2022/07/17 01:31:48;;;;;;;1.50;0.30;;;18.90;99.90;;;;;;4954821;29;20020;-71
2022/07/17 01:34:16;;;;;;;0.98;0.30;;;18.90;98.50;;;;;;4954664;29;20082;-71
2022/07/17 01:36:43;;;;;;;1.65;0.20;;;18.90;99.60;;;;;;4937435;29;20074;-71
2022/07/17 01:39:11;;;;;;;1.33;0.22;;;19.00;99.40;;;;;;4954667;29;20024;-70
2022/07/17 01:41:39;;;;;;;0.20;0.20;;;19.10;99.00;;;;;;4954925;29;20062;-71
2022/07/17 01:44:08;;;;;;;0.30;0.20;;;19.20;99.50;;;;;;4937660;29;20023;-71
2022/07/17 01:46:35;;;;;;;1.10;0.10;;;19.30;98.90;;;;;;4954677;29;20110;-71
2022/07/17 01:49:03;;;;;;;0.40;0.30;;;19.30;98.40;;;;;;4954711;29;20024;-70
2022/07/17 01:51:30;;;;;;;2.20;0.40;;;19.30;98.70;;;;;;4937213;29;20023;-70
2022/07/17 01:53:58;;;;;;;0.85;0.10;;;19.40;99.40;;;;;;4937219;29;20420;-70
2022/07/17 01:56:25;;;;;;;1.70;0.30;;;19.50;97.60;;;;;;4954462;29;20047;-71
2022/07/17 01:58:53;;;;;;;1.67;0.40;;;19.60;98.50;;;;;;4937066;29;20051;-70
2022/07/17 02:01:20;;;;;;;1.63;0.20;;;19.60;98.20;;;;;;4937041;29;20031;-71
2022/07/17 02:03:47;;;;;;;0.52;0.17;;;19.50;97.90;;;;;;4954910;29;20019;-72
2022/07/17 02:06:15;;;;;;;1.30;0.28;;;19.60;97.90;;;;;;4936743;29;20389;-71
2022/07/17 02:08:42;;;;;;;1.20;0.20;;;19.60;98.80;;;;;;4954568;29;20047;-72
2022/07/17 02:11:10;;;;;;;1.85;0.43;;;19.80;97.90;;;;;;4936998;29;20473;-72
2022/07/17 02:13:37;;;;;;;1.42;0.20;;;19.80;98.40;;;;;;4954483;29;20019;-72
2022/07/17 02:16:05;;;;;;;0.90;0.22;;;19.90;97.30;;;;;;4936980;29;20039;-71
2022/07/17 02:18:34;;;;;;;1.70;0.40;;;19.90;98.00;;;;;;4937095;29;20491;-72
2022/07/17 02:21:02;;;;;;;0.70;0.30;;;20.00;96.90;;;;;;4939139;29;20026;-72
2022/07/17 02:23:30;;;;;;;0.43;0.22;;;20.00;96.30;;;;;;4940795;29;20027;-72
2022/07/17 02:25:57;;;;;;;0.65;0.30;;;20.10;97.00;;;;;;4958156;29;20035;-72
2022/07/17 02:28:24;;;;;;;1.27;0.20;;;20.10;97.10;;;;;;4958257;29;20110;-71
2022/07/17 02:30:52;;;;;;;0.88;0.20;;;20.20;95.80;;;;;;4940853;29;20093;-71
2022/07/17 02:33:19;;;;;;;1.67;0.30;;;20.20;96.50;;;;;;4957960;29;20093;-70
2022/07/17 02:35:47;;;;;;;0.52;0.20;;;20.30;94.70;;;;;;4957947;29;20144;-71
2022/07/17 02:38:14;;;;;;;0.82;0.20;;;20.30;94.50;;;;;;4957871;29;20037;-71
2022/07/17 02:40:41;;;;;;;1.30;0.40;;;20.30;95.30;;;;;;4957583;29;20019;-70
2022/07/17 02:43:10;;;;;;;0.98;0.40;;;20.30;95.40;;;;;;4940341;29;20030;-70
2022/07/17 02:45:38;;;;;;;1.52;0.40;;;20.30;94.30;;;;;;4957582;29;20114;-70
2022/07/17 02:48:05;;;;;;;0.68;0.20;;;20.40;94.00;;;;;;4957597;29;20037;-70
2022/07/17 02:50:33;;;;;;;1.35;0.30;;;20.50;93.80;;;;;;4940238;29;20031;-70
2022/07/17 02:53:00;;;;;;;0.65;0.25;;;20.60;94.80;;;;;;4957521;29;20028;-71
2022/07/17 02:55:27;;;;;;;0.68;0.30;;;20.60;94.60;;;;;;4957421;29;20038;-71
2022/07/17 02:57:55;;;;;;;0.57;0.20;;;20.60;93.60;;;;;;4957233;29;20026;-72
2022/07/17 03:00:22;;;;;;;1.27;0.43;;;20.60;92.90;;;;;;4957709;29;20480;-72
2022/07/17 03:02:50;;;;;;;1.20;0.20;;;20.60;93.40;;;;;;4957279;29;20023;-70
2022/07/17 03:05:17;;;;;;;1.50;0.17;;;20.60;93.50;;;;;;4939689;29;20504;-72
2022/07/17 03:07:45;;;;;;;1.42;0.40;;;20.60;94.70;;;;;;4939787;29;20054;-71
2022/07/17 03:10:13;;;;;;;1.23;0.40;;;20.70;93.90;;;;;;4957105;29;20058;-71
2022/07/17 03:12:41;;;;;;;1.08;0.20;;;20.80;93.30;;;;;;4957119;29;20027;-72
2022/07/17 03:15:10;;;;;;;0.90;0.20;;;20.80;92.40;;;;;;4956879;29;20129;-71
2022/07/17 03:17:39;;;;;;;0.73;0.30;;;20.70;92.80;;;;;;4957199;29;20020;-71
2022/07/17 03:20:09;;;;;;;0.70;0.28;;;20.70;91.60;;;;;;4957725;29;20042;-72
2022/07/17 03:22:36;;;;;;;1.25;0.38;;;20.60;91.80;;;;;;4924378;29;20035;-71
2022/07/17 03:25:04;;;;;;;0.47;0.10;;;20.60;91.70;;;;;;4957161;29;20395;-72
2022/07/17 03:27:31;;;;;;;0.88;0.20;;;20.60;92.20;;;;;;4957098;29;20599;-72
2022/07/17 03:29:59;;;;;;;0.43;0.20;;;20.60;91.60;;;;;;4957405;29;20491;-71
2022/07/17 03:32:26;;;;;;;0.57;0.20;;;20.70;91.50;;;;;;4956274;28;20028;-71
2022/07/17 03:34:53;;;;;;;8.18;0.40;;;20.60;91.00;;;;;;4956760;29;20024;-72
2022/07/17 03:37:21;;;;;;;0.30;0.20;;;20.60;91.10;;;;;;4956948;29;20031;-71
2022/07/17 03:39:48;;;;;;;0.50;0.20;;;20.70;91.90;;;;;;4939391;29;20024;-72
2022/07/17 03:42:15;;;;;;;0.30;0.15;;;20.80;91.10;;;;;;4956810;29;20579;-71
2022/07/17 03:44:43;;;;;;;1.90;0.30;;;20.60;90.80;;;;;;4956558;29;20098;-72
2022/07/17 03:47:10;;;;;;;0.68;0.10;;;20.60;90.10;;;;;;4939221;29;20402;-72
2022/07/17 03:49:38;;;;;;;0.90;0.20;;;20.70;89.60;;;;;;4956762;29;20027;-71
2022/07/17 03:52:05;;;;;;;0.63;0.17;;;20.70;88.80;;;;;;4939222;29;20031;-72
2022/07/17 03:54:33;;;;;;;0.85;0.22;;;20.60;89.10;;;;;;4956439;29;20032;-72
2022/07/17 03:57:00;;;;;;;1.23;0.30;;;20.50;91.80;;;;;;4956527;29;20071;-73
2022/07/17 03:59:27;;;;;;;1.27;0.30;;;20.50;91.50;;;;;;4939519;29;20395;-75
2022/07/17 04:01:56;;;;;;;3.13;0.20;;;20.40;90.10;;;;;;4956937;29;20019;-73
2022/07/17 04:04:23;;;;;;;0.25;0.15;;;20.30;89.10;;;;;;4939342;29;20122;-74
2022/07/17 04:06:50;;;;;;;1.90;0.40;;;20.30;90.10;;;;;;4956175;29;20075;-72
2022/07/17 04:09:17;;;;;;;1.60;0.30;;;20.40;87.80;;;;;;4939194;29;20385;-74
2022/07/17 04:11:45;;;;;;;0.93;0.32;;;20.30;89.40;;;;;;4956154;29;20058;-73
2022/07/17 04:14:12;;;;;;;1.58;0.20;;;20.30;89.00;;;;;;4956149;29;20081;-74
2022/07/17 04:16:40;;;;;;;0.70;0.32;;;20.30;90.20;;;;;;4956442;29;20395;-74
2022/07/17 04:19:07;;;;;;;1.25;0.20;;;20.20;88.90;;;;;;4939546;29;20025;-74
2022/07/17 04:21:35;;;;;;;0.47;0.15;;;20.30;87.70;;;;;;4956362;29;20031;-75
2022/07/17 04:24:02;;;;;;;0.70;0.20;;;20.20;89.70;;;;;;4956351;29;20019;-74
2022/07/17 04:26:29;;;;;;;0.73;0.25;;;;;;;;;;4956287;29;20019;-73
2022/07/17 04:28:57;;;;;;;0.60;0.20;;;;;;;;;;4957005;29;20031;-75
2022/07/17 04:31:24;;;;;;;1.98;0.30;;;;;;;;;;4939080;29;20019;-74
2022/07/17 04:33:53;;;;;;;1.55;0.20;;;;;;;;;;4938831;29;20110;-72
2022/07/17 04:36:20;;;;;;;1.00;0.10;;;;;;;;;;4938552;29;20023;-73
2022/07/17 04:38:48;;;;;;;0.40;0.10;;;;;;;;;;4938554;29;20488;-73
2022/07/17 04:41:15;;;;;;;1.65;0.20;;;;;;;;;;4955959;29;20019;-72
2022/07/17 04:43:42;;;;;;;0.40;0.22;;;;;;;;;;4955230;28;20091;-72
2022/07/17 04:46:09;;;;;;;1.95;0.40;;;;;;;;;;4955606;29;20019;-73
2022/07/17 04:48:36;;;;;;;1.13;0.20;;;;;;;;;;4955832;29;20102;-73
2022/07/17 04:51:04;;;;;;;1.85;0.10;;;;;;;;;;4955859;29;20027;-73
2022/07/17 04:53:31;;;;;;;0.68;0.17;;;;;;;;;;4956010;29;20038;-72
2022/07/17 04:55:58;;;;;;;1.40;0.30;;;;;;;;;;4938408;29;20027;-72
2022/07/17 04:58:26;;;;;;;0.55;0.20;;;;;;;;;;4938274;29;20031;-73
2022/07/17 05:00:54;;;;;;;1.40;0.20;;;19.70;93.30;;;;;;4938402;29;20019;-72
2022/07/17 05:03:21;;;;;;;2.58;0.20;;;19.70;93.20;;;;;;4938697;29;20035;-72
2022/07/17 05:05:49;;;;;;;0.40;0.20;;;19.60;92.50;;;;;;4938114;29;20051;-73
2022/07/17 05:08:17;;;;;;;1.45;0.25;;;19.50;92.90;;;;;;4955998;29;20091;-73
2022/07/17 05:10:44;;;;;;;0.32;0.30;;;19.50;92.80;;;;;;4938756;29;20023;-73
2022/07/17 05:13:12;;;;;;;0.98;0.20;;;19.40;93.10;;;;;;4938162;29;20469;-72
2022/07/17 05:15:40;;;;;;;0.50;0.20;;;19.40;93.40;;;;;;4938452;29;20027;-73
2022/07/17 05:18:08;;;;;;;1.17;0.40;;;19.40;92.80;;;;;;4955525;29;20392;-73
2022/07/17 05:20:35;;;;;;;1.17;0.20;;;19.40;92.10;;;;;;4955536;29;20048;-72
2022/07/17 05:23:03;;;;;;;0.30;0.20;;;19.40;92.50;;;;;;4954379;29;20027;-73
2022/07/17 05:25:30;;;;;;;0.50;0.30;;;19.40;93.30;;;;;;4938287;29;20034;-73
2022/07/17 05:27:58;;;;;;;0.63;0.30;;;19.30;93.00;;;;;;4938207;29;20443;-74
2022/07/17 05:30:26;;;;;;;0.60;0.30;;;19.30;91.40;;;;;;4955256;29;20031;-73
2022/07/17 05:32:53;;;;;;;1.27;0.20;;;19.40;92.60;;;;;;4955034;29;20038;-72
2022/07/17 05:35:21;;;;;;;0.60;0.20;;;19.30;92.20;;;;;;4937916;29;20535;-73
2022/07/17 05:37:48;;;;;;;1.35;0.20;;;19.20;93.20;;;;;;4955209;29;20020;-73
2022/07/17 05:40:16;;;;;;;0.95;0.20;;;19.20;92.60;;;;;;4937849;29;20392;-73
2022/07/17 05:42:44;;;;;;;0.88;0.30;;;19.20;92.10;;;;;;4937724;29;20030;-73
2022/07/17 05:45:11;;;;;;;0.77;0.28;;;19.20;92.80;;;;;;4954986;29;20031;-72
2022/07/17 05:47:39;;;;;;;0.43;0.20;;;19.00;92.30;;;;;;4955131;29;20027;-72
2022/07/17 05:50:07;;;;;;;0.80;0.10;;;19.00;92.00;;;;;;4954968;29;20024;-73
2022/07/17 05:52:34;;;;;;;3.00;0.30;;;19.00;92.50;;;;;;4938054;29;20040;-72
2022/07/17 05:55:02;;;;;;;0.22;0.17;;;19.00;92.00;;;;;;4955062;28;20028;-73
2022/07/17 05:57:29;;;;;;;5.18;0.30;;;19.00;91.30;;;;;;4959195;29;20043;-72
2022/07/17 05:59:56;;;;;;;0.77;0.25;;;18.90;92.30;;;;;;4941512;29;20070;-72
2022/07/17 06:02:24;;;;;;;2.97;0.20;;;18.90;91.50;;;;;;4941413;29;20027;-72
2022/07/17 06:04:51;;;;;;;1.73;0.30;;;18.70;93.30;;;;;;4959339;29;20059;-72
2022/07/17 06:07:18;;;;;;;1.88;0.40;;;18.70;94.10;;;;;;4941408;29;20464;-70
2022/07/17 06:09:46;;;;;;;1.77;0.22;;;18.60;92.80;;;;;;4941233;29;20031;-72
2022/07/17 06:12:16;;;;;;;1.38;0.28;;;18.60;92.80;;;;;;4942358;29;20405;-71
2022/07/17 06:14:44;;;;;;;0.65;0.20;;;18.40;93.20;;;;;;4958666;29;20030;-71
2022/07/17 06:17:11;;;;;;;2.03;0.20;;;18.30;91.80;;;;;;4941853;29;20050;-72
2022/07/17 06:19:39;;;;;;;0.77;0.20;;;18.30;92.50;;;;;;4941507;29;20023;-73
2022/07/17 06:22:06;;;;;;;1.40;0.22;;;18.20;92.10;;;;;;4958694;29;20023;-73
2022/07/17 06:24:34;;;;;;;0.40;0.30;;;18.10;91.80;;;;;;4942103;29;20031;-72
2022/07/17 06:27:01;;;;;;;0.80;0.40;;;18.10;91.60;;;;;;4958889;29;20031;-73
2022/07/17 06:29:29;;;;;;;0.80;0.25;;;18.00;91.80;;;;;;4958671;29;20031;-73
2022/07/17 06:31:56;;;;;;;1.65;0.40;;;17.90;92.70;;;;;;4958274;29;20039;-71
2022/07/17 06:34:23;;;;;;;0.77;0.20;;;17.80;91.50;;;;;;4940902;29;20420;-71
2022/07/17 06:36:51;;;;;;;2.22;0.30;;;17.90;91.40;;;;;;4958243;29;20099;-71
2022/07/17 06:39:18;;;;;;;0.63;0.30;;;17.80;91.80;;;;;;4957959;29;20019;-73
2022/07/17 06:41:46;;;;;;;0.40;0.20;;;17.70;92.10;;;;;;4941023;29;20484;-72
2022/07/17 06:44:13;;;;;;;1.02;0.40;;;17.60;92.20;;;;;;4940571;29;20035;-73
2022/07/17 06:46:40;;;;;;;0.80;0.30;;;17.60;92.30;;;;;;4940605;29;20027;-73
2022/07/17 06:49:08;;;;;;;0.38;0.20;;;17.50;92.60;;;;;;4940663;29;20432;-71
2022/07/17 06:51:35;;;;;;;0.80;0.40;;;17.70;91.40;;;;;;4957750;29;20079;-71
2022/07/17 06:54:03;;;;;;;1.45;0.30;;;17.60;92.50;;;;;;4957979;29;20031;-72
2022/07/17 06:56:30;;;;;;;1.02;0.40;;;17.40;92.60;;;;;;4958011;29;20030;-73
2022/07/17 06:58:58;;;;;;;1.48;0.20;;;17.30;92.80;;;;;;4940252;29;20019;-72
2022/07/17 07:01:25;;;;;;;0.70;0.38;;;17.10;93.70;;;;;;4940448;29;20058;-70
2022/07/17 07:03:53;;;;;;;0.82;0.30;;;17.10;92.30;;;;;;4957812;29;20031;-72
2022/07/17 07:06:20;;;;;;;1.23;0.32;;;17.20;92.40;;;;;;4957615;28;20050;-72
2022/07/17 07:08:48;;;;;;;0.68;0.30;;;17.10;92.10;;;;;;4939590;29;20031;-72
2022/07/17 07:11:15;;;;;;;0.70;0.30;;;17.10;93.80;;;;;;4957532;29;20412;-71
2022/07/17 07:13:42;;;;;;;2.60;0.50;;;16.90;93.10;;;;;;4957547;29;20384;-72
2022/07/17 07:16:10;;;;;;;1.63;0.40;;;16.80;92.70;;;;;;4940211;29;20046;-71
2022/07/17 07:18:38;;;;;;;1.48;0.90;;;16.80;92.40;;;;;;4957179;29;20074;-70
2022/07/17 07:21:06;;;;;;;2.58;0.50;;;16.70;93.40;;;;;;4939896;29;20074;-71
2022/07/17 07:23:33;;;;;;;1.90;0.60;;;16.40;94.10;;;;;;4939906;29;20031;-71
2022/07/17 07:26:00;;;;;;;1.95;0.90;;;16.50;93.20;;;;;;4940726;29;20028;-71
2022/07/17 07:28:28;;;;;;;1.85;0.63;;;16.50;93.10;;;;;;4957754;29;20031;-70
2022/07/17 07:30:55;;;;;;;2.38;0.77;;;16.40;93.60;;;;;;4939684;29;20117;-70
2022/07/17 07:33:23;;;;;;;0.95;0.60;;;16.30;93.10;;;;;;4939493;29;20488;-70
2022/07/17 07:35:50;;;;;;;1.38;0.60;;;16.30;93.30;;;;;;4956962;29;20020;-71
2022/07/17 07:38:18;;;;;;;1.80;0.80;;;16.30;93.60;;;;;;4957698;29;20499;-71
2022/07/17 07:40:45;;;;;;;1.30;0.80;;;16.20;93.60;;;;;;4956951;29;20070;-70
2022/07/17 07:43:13;;;;;;;1.92;0.80;;;16.20;93.80;;;;;;4956898;29;20019;-71
2022/07/17 07:45:40;;;;;;;2.35;1.08;;;16.20;93.00;;;;;;4956939;29;20038;-72
2022/07/17 07:48:08;;;;;;;1.75;0.43;;;16.10;94.00;;;;;;4957070;29;20028;-71
2022/07/17 07:50:35;;;;;;;0.70;0.30;;;16.20;93.70;;;;;;4956845;29;20027;-71
2022/07/17 07:53:03;;;;;;;0.95;0.47;;;16.20;94.40;;;;;;4957165;29;20023;-71
2022/07/17 07:55:31;;;;;;;0.98;0.30;;;16.30;94.00;;;;;;4956663;29;20031;-70
2022/07/17 07:58:12;;;;;;;1.38;0.47;;;16.40;94.40;;;;;;4956706;29;20016;-73
2022/07/17 08:00:44;;;;;;;1.83;0.40;;;16.30;93.50;;;;;;4939214;29;20027;-70
2022/07/17 08:03:14;;;;;;;1.50;0.35;;;16.30;93.90;;;;;;4939366;29;20050;-72
2022/07/17 08:05:41;;;;;;;5.97;0.80;;;16.20;93.80;;;;;;4956466;29;20078;-72
2022/07/17 08:08:09;;;;;;;2.47;0.50;;;16.30;93.70;;;;;;4939481;29;20024;-71
2022/07/17 08:10:36;;;;;;;2.55;0.93;;;16.20;95.60;;;;;;4956689;29;20042;-70
2022/07/17 08:13:04;;;;;;;3.88;0.70;;;16.20;94.50;;;;;;4956420;29;20458;-72
2022/07/17 08:15:31;;;;;;;1.85;0.90;;;16.30;94.20;;;;;;4956329;29;20106;-73
2022/07/17 08:17:59;;;;;;;2.63;0.60;;;16.20;94.10;;;;;;4938965;28;20086;-73
2022/07/17 08:20:27;;;;;;;1.35;0.50;;;16.20;94.50;;;;;;4956379;29;20135;-73
2022/07/17 08:22:54;;;;;;;2.38;0.68;;;16.10;94.80;;;;;;4939113;29;20023;-72
2022/07/17 08:25:22;;;;;;;2.70;0.60;;;16.00;94.90;;;;;;4956046;29;20034;-74
2022/07/17 08:27:49;;;;;;;1.65;0.75;;;15.90;95.30;;;;;;4938843;29;20031;-73
2022/07/17 08:30:16;;;;;;;1.33;0.60;;;15.90;95.10;;;;;;4956021;29;20031;-72
2022/07/17 08:32:44;;;;;;;2.05;0.60;;;15.80;95.40;;;;;;4956016;29;20031;-71
2022/07/17 08:35:12;;;;;;;1.77;0.80;;;15.70;95.40;;;;;;4955939;29;20039;-72
2022/07/17 08:37:48;;;;;;;2.15;0.80;;;15.70;95.80;;;;;;4938683;29;20024;-70
2022/07/17 08:40:27;;;;;;;2.05;0.70;;;15.60;95.70;;;;;;4956288;29;20019;-71
2022/07/17 08:42:56;;;;;;;2.33;0.80;;;15.60;96.00;;;;;;4938722;29;20035;-71
2022/07/17 08:45:24;;;;;;;2.22;0.82;;;15.60;95.70;;;;;;4938779;29;20031;-72
2022/07/17 08:47:53;;;;;;;3.38;1.15;;;15.60;95.90;;;;;;4938772;29;20488;-71
2022/07/17 08:50:25;;;;;;;4.57;1.15;;;15.80;95.50;;;;;;4938522;29;20054;-72
2022/07/17 08:52:53;;;;;;;1.42;0.75;;;15.80;95.70;;;;;;4956361;29;20062;-72
2022/07/17 08:55:21;;;;;;;3.75;0.95;;;15.70;95.90;;;;;;4955852;29;20027;-72
2022/07/17 08:57:48;;;;;;;2.90;0.70;;;15.50;96.40;;;;;;4938569;29;20023;-73
2022/07/17 09:00:18;;;;;;;1.40;0.80;;;15.60;96.10;;;;;;4955710;29;20023;-73
2022/07/17 09:03:01;;;;;;;1.98;0.70;;;15.50;96.10;;;;;;4938501;29;20023;-73
2022/07/17 09:05:32;;;;;;;2.25;1.10;;;15.70;95.60;;;;;;4938225;29;20039;-73
2022/07/17 09:08:00;;;;;;;2.65;0.98;;;15.50;96.10;;;;;;4939071;29;20484;-73
2022/07/17 09:10:42;;;;;;;2.17;0.70;;;15.50;95.80;;;;;;4939396;29;20027;-72
2022/07/17 09:13:18;;;;;;;2.95;1.00;;;15.50;95.80;;;;;;4955904;29;20031;-72
2022/07/17 09:15:47;;;;;;;1.75;0.70;;;15.50;95.80;;;;;;4956139;29;20031;-72
2022/07/17 09:18:17;;;;;;;1.90;0.95;;;15.60;96.00;;;;;;4938858;29;20020;-72
2022/07/17 09:20:54;;;;;;;2.33;0.98;;;15.60;96.10;;;;;;4955871;29;20023;-72
2022/07/17 09:23:23;;;;;;;1.40;0.70;;;15.40;96.50;;;;;;4956042;29;20384;-72
2022/07/17 09:25:54;;;;;;;1.75;0.75;;;15.20;96.80;;;;;;4955741;29;20031;-72
2022/07/17 09:28:22;;;;;;;3.10;0.90;;;15.20;96.60;;;;;;4955662;29;20027;-73
2022/07/17 09:30:55;;;;;;;1.70;0.90;;;15.00;97.10;;;;;;4955513;29;20121;-72
2022/07/17 09:33:28;;;;;;;1.50;0.90;;;15.00;97.20;;;;;;4938241;29;20027;-71
2022/07/17 09:36:12;;;;;;;1.88;0.60;;;14.80;98.20;;;;;;4938264;29;20046;-73
2022/07/17 09:38:44;;;;;;;2.53;0.90;;;14.80;97.50;;;;;;4956016;29;20049;-72
2022/07/17 09:41:17;;;;;;;2.55;0.60;;;14.70;97.70;;;;;;4938071;29;20027;-74
2022/07/17 09:44:00;;;;;;;0.77;0.50;;;14.80;97.70;;;;;;4955468;29;20023;-73
2022/07/17 09:46:33;;;;;;;1.17;0.60;;;14.80;97.90;;;;;;4955264;29;20023;-71
2022/07/17 09:49:02;;;;;;;0.73;0.50;;;14.90;98.70;;;;;;4937971;29;20082;-73
2022/07/17 09:51:38;;;;;;;1.67;0.40;;;14.80;99.50;;;;;;4955253;29;20101;-73
2022/07/17 09:54:08;;;;;;;1.45;0.60;;;14.60;98.90;;;;;;4955407;29;20030;-72
2022/07/17 09:56:38;;;;;;;1.37;0.70;;;14.60;99.20;;;;;;4955164;29;20055;-72
2022/07/17 09:59:10;;;;;;;1.58;0.75;;;14.50;99.50;;;;;;4955439;29;20070;-70
2022/07/17 10:01:40;;;;;;;1.00;0.60;;;14.40;99.70;;;;;;4955251;29;20385;-72
2022/07/17 10:04:09;;;;;;;2.55;0.82;;;14.30;99.90;;;;;;4955593;29;20023;-72
2022/07/17 10:06:36;;;;;;;1.02;0.50;;;14.20;99.90;;;;;;4937611;29;20082;-72
2022/07/17 10:09:05;;;;;;;1.05;0.60;;;14.20;99.90;;;;;;4938022;29;20023;-72
2022/07/17 10:11:39;;;;;;;1.08;0.70;;;14.20;99.90;;;;;;4955105;29;20082;-72
2022/07/17 10:14:11;;;;;;;1.52;0.60;;;14.20;99.90;;;;;;4937544;29;20023;-72
2022/07/17 10:16:39;;;;;;;1.13;0.50;;;14.20;99.90;;;;;;4954985;29;20023;-71
2022/07/17 10:19:26;;;;;;;1.60;0.50;;;14.10;99.90;;;;;;4954995;29;20058;-71
2022/07/17 10:21:59;;;;;;;0.85;0.57;;;14.00;99.90;;;;;;4955029;29;20023;-72
2022/07/17 10:24:29;;;;;;;1.95;0.50;;;14.00;99.90;;;;;;4954978;29;20050;-73
2022/07/17 10:26:57;;;;;;;1.60;0.90;;;13.90;99.90;;;;;;4937839;29;20027;-71
2022/07/17 10:29:39;;;;;;;2.35;0.77;;;13.80;99.90;;;;;;4937457;29;20034;-72
2022/07/17 10:32:16;;;;;;;1.60;0.70;;;13.70;99.90;;;;;;4937483;29;20178;-72
2022/07/17 10:34:48;;;;;;;2.85;0.75;;;13.60;99.90;;;;;;4954853;29;20024;-74
2022/07/17 10:37:21;;;;;;;3.13;0.80;;;13.50;99.90;;;;;;4954821;29;20540;-72
2022/07/17 10:40:05;;;;;;;2.88;0.75;;;13.40;99.90;;;;;;4954724;29;20078;-73
2022/07/17 10:42:51;;;;;;;1.25;0.60;;;13.40;99.90;;;;;;4955732;28;20042;-73
2022/07/17 10:45:27;;;;;;;1.42;0.52;;;13.30;99.90;;;;;;4940861;29;20395;-73
2022/07/17 11:32:58;;;;;;;0.88;0.40;;;13.00;99.90;;;;;;4956643;29;20118;-76
2022/07/17 11:35:26;;;;;;;1.77;0.38;;;13.00;99.90;;;;;;4938661;29;20047;-75
2022/07/17 11:49:03;;;;;;;1.38;0.45;;;12.80;99.50;;;;;;5112083;27;20435;-75
2022/07/17 11:51:42;;;;;;;3.63;0.52;;;12.90;99.90;;;;;;5112519;28;20356;-75
2022/07/17 11:54:13;;;;;;;0.70;0.40;;;12.80;99.90;;;;;;5112642;28;20053;-75
2022/07/17 11:56:42;;;;;;;0.85;0.50;;;12.80;99.90;;;;;;5111134;28;20020;-75
2022/07/17 11:59:11;;;;;;;1.73;0.40;;;12.80;99.90;;;;;;5110259;28;20024;-75
2022/07/17 12:01:46;;;;;;;1.60;0.40;;;12.90;99.90;;;;;;5111677;28;20038;-75
2022/07/17 12:04:16;;;;;;;1.55;0.40;;;12.80;99.90;;;;;;5111646;28;20427;-74
2022/07/17 12:06:45;;;;;;;1.45;0.30;;;12.90;99.90;;;;;;5112096;28;20510;-77
2022/07/17 12:09:13;;;;;;;1.20;0.47;;;12.80;99.90;;;;;;5110635;28;20123;-76
2022/07/17 12:11:50;;;;;;;1.90;0.50;;;12.70;99.90;;;;;;5111564;28;20039;-76
2022/07/17 12:14:18;;;;;;;0.68;0.40;;;12.80;99.90;;;;;;5111371;28;20031;-75
2022/07/17 12:16:45;;;;;;;3.40;0.50;;;12.80;99.90;;;;;;5109818;28;20063;-74
2022/07/17 12:19:16;;;;;;;1.10;0.40;;;12.80;99.90;;;;;;5109803;28;20016;-73
2022/07/17 12:21:53;;;;;;;1.52;0.40;;;12.70;99.90;;;;;;5109702;28;20020;-73
2022/07/17 12:24:23;;;;;;;1.00;0.40;;;12.70;99.90;;;;;;5111771;28;20051;-74
2022/07/17 12:26:51;;;;;;;1.23;0.82;;;12.60;99.90;;;;;;5111235;28;20019;-75
2022/07/17 12:29:19;;;;;;;1.48;0.88;;;12.60;99.90;;;;;;5111077;28;20024;-75
2022/07/17 12:31:47;;;;;;;1.08;0.40;;;12.50;99.90;;;;;;5110998;28;20016;-75
2022/07/17 12:34:15;;;;;;;1.65;0.40;;;12.40;99.90;;;;;;5110164;28;20064;-75
2022/07/17 12:36:42;;;;;;;1.88;0.50;;;12.30;99.90;;;;;;5110065;28;20505;-75
2022/07/17 12:39:10;;;;;;;1.52;0.40;;;12.20;99.90;;;;;;5110589;28;20031;-75
2022/07/17 12:41:38;;;;;;;0.60;0.30;;;12.10;99.90;;;;;;5110091;27;20094;-75
2022/07/17 12:44:05;;;;;;;1.52;0.50;;;12.00;99.90;;;;;;5110862;28;20360;-75
2022/07/17 12:46:33;;;;;;;1.10;0.60;;;11.90;99.90;;;;;;5110762;28;20070;-75
2022/07/17 12:49:00;;;;;;;1.30;0.68;;;11.90;99.90;;;;;;5101144;27;20040;-75
2022/07/17 12:51:28;;;;;;;1.50;0.60;;;11.80;99.90;;;;;;5095877;28;20028;-75
2022/07/17 12:53:55;;;;;;;2.28;0.75;;;11.80;99.90;;;;;;5097266;28;20059;-74
2022/07/17 12:56:23;;;;;;;2.50;1.00;;;11.80;99.90;;;;;;5096224;28;20032;-75
2022/07/17 12:58:50;;;;;;;0.98;0.60;;;11.80;99.90;;;;;;5096179;28;20020;-75
2022/07/17 13:01:18;;;;;;;1.90;0.50;;;11.70;99.90;;;;;;5097590;28;20028;-75
2022/07/17 13:03:46;;;;;;;1.30;0.60;;;11.70;99.90;;;;;;5096413;28;20085;-73
2022/07/17 13:06:14;;;;;;;0.65;0.45;;;11.70;99.90;;;;;;5096280;28;20016;-72
2022/07/17 13:08:41;;;;;;;0.80;0.45;;;11.60;99.90;;;;;;5095100;28;20547;-73
2022/07/17 13:11:09;;;;;;;1.90;0.70;;;11.60;99.90;;;;;;5096068;28;20052;-71
2022/07/17 13:13:36;;;;;;;1.17;0.80;;;11.60;99.90;;;;;;5094663;28;20016;-72
2022/07/17 13:16:04;;;;;;;1.77;0.90;;;11.50;99.90;;;;;;5094743;28;20024;-72
2022/07/17 13:18:31;;;;;;;1.73;0.70;;;11.50;99.90;;;;;;5095928;28;20457;-72
2022/07/17 13:20:59;;;;;;;1.02;0.70;;;11.50;99.90;;;;;;5095839;28;20058;-72
2022/07/17 13:23:26;;;;;;;1.75;0.60;;;11.50;99.90;;;;;;5095890;28;20069;-73
2022/07/17 13:25:54;;;;;;;2.10;0.70;;;11.40;99.90;;;;;;5095931;28;20070;-73
2022/07/17 13:28:21;;;;;;;1.90;0.60;;;11.50;99.90;;;;;;5095843;28;20032;-74
2022/07/17 13:30:49;;;;;;;0.93;0.70;;;11.40;99.90;;;;;;5095807;28;20024;-73
2022/07/17 13:33:16;;;;;;;2.08;0.80;;;11.30;99.90;;;;;;5095986;28;20030;-73
2022/07/17 13:35:44;;;;;;;1.63;0.90;;;11.30;99.90;;;;;;5094297;28;20043;-73
2022/07/17 13:38:14;;;;;;;1.63;0.90;;;11.20;99.90;;;;;;5095582;28;20471;-73
2022/07/17 13:40:42;;;;;;;2.53;1.20;;;11.20;99.90;;;;;;5094467;28;20026;-73
2022/07/17 13:43:09;;;;;;;2.20;1.20;;;11.20;99.90;;;;;;5095493;28;20043;-73
2022/07/17 13:45:37;;;;;;;2.67;0.90;;;11.10;99.90;;;;;;5094113;28;20020;-73
2022/07/17 13:48:05;;;;;;;1.08;0.77;;;11.10;99.90;;;;;;5095256;28;20040;-72
2022/07/17 13:50:32;;;;;;;1.52;0.60;;;11.10;99.90;;;;;;5095435;28;20024;-73
2022/07/17 13:53:01;;;;;;;1.48;0.50;;;11.10;99.90;;;;;;5095196;28;20028;-73